sensor_id;sensor_type;location;lat;lon;timestamp;pressure;altitude;pressure_sealevel;temperature;humidity
23281;BME280;11809;56.390;-3.266;2023-03-21T00:00:59;100003.47;;;17.56;53.01
23281;BME280;11809;56.390;-3.266;2023-03-21T00:03:30;99997.44;;;17.54;52.97
23281;BME280;11809;56.390;-3.266;2023-03-21T00:05:59;99982.47;;;17.53;53.13
23281;BME280;11809;56.390;-3.266;2023-03-21T00:08:30;99985.94;;;17.54;53.02
23281;BME280;11809;56.390;-3.266;2023-03-21T00:10:59;99979.03;;;17.51;53.27
23281;BME280;11809;56.390;-3.266;2023-03-21T00:13:27;99965.03;;;17.49;53.36
23281;BME280;11809;56.390;-3.266;2023-03-21T00:16:06;99965.28;;;17.46;53.25
23281;BME280;11809;56.390;-3.266;2023-03-21T00:18:53;99961.91;;;17.44;53.26
23281;BME280;11809;56.390;-3.266;2023-03-21T00:21:22;99959.25;;;17.44;53.22
23281;BME280;11809;56.390;-3.266;2023-03-21T00:24:14;99963.84;;;17.42;53.44
23281;BME280;11809;56.390;-3.266;2023-03-21T00:26:41;99962.16;;;17.41;53.43
23281;BME280;11809;56.390;-3.266;2023-03-21T00:29:08;99955.16;;;17.40;53.18
23281;BME280;11809;56.390;-3.266;2023-03-21T00:31:35;99950.09;;;17.37;53.38
23281;BME280;11809;56.390;-3.266;2023-03-21T00:34:01;99948.75;;;17.32;53.45
23281;BME280;11809;56.390;-3.266;2023-03-21T00:36:29;99943.78;;;17.27;53.44
23281;BME280;11809;56.390;-3.266;2023-03-21T00:38:57;99934.38;;;17.23;53.59
23281;BME280;11809;56.390;-3.266;2023-03-21T00:41:26;99935.56;;;17.19;53.66
23281;BME280;11809;56.390;-3.266;2023-03-21T00:44:07;99931.13;;;17.20;53.67
23281;BME280;11809;56.390;-3.266;2023-03-21T00:46:34;99923.66;;;17.14;53.72
23281;BME280;11809;56.390;-3.266;2023-03-21T00:49:14;99914.38;;;17.08;53.91
23281;BME280;11809;56.390;-3.266;2023-03-21T00:51:42;99913.63;;;17.06;53.86
23281;BME280;11809;56.390;-3.266;2023-03-21T00:54:10;99903.97;;;17.05;54.03
23281;BME280;11809;56.390;-3.266;2023-03-21T00:56:38;99899.84;;;17.01;54.03
23281;BME280;11809;56.390;-3.266;2023-03-21T00:59:05;99906.03;;;17.02;53.96
23281;BME280;11809;56.390;-3.266;2023-03-21T01:01:32;99901.09;;;16.97;54.14
23281;BME280;11809;56.390;-3.266;2023-03-21T01:04:00;99891.41;;;16.96;54.17
23281;BME280;11809;56.390;-3.266;2023-03-21T01:06:36;99889.97;;;16.92;54.22
23281;BME280;11809;56.390;-3.266;2023-03-21T01:09:11;99889.97;;;16.92;54.22
23281;BME280;11809;56.390;-3.266;2023-03-21T01:11:38;99887.44;;;16.90;54.24
23281;BME280;11809;56.390;-3.266;2023-03-21T01:14:05;99879.69;;;16.87;54.21
23281;BME280;11809;56.390;-3.266;2023-03-21T01:16:49;99872.81;;;16.85;54.30
23281;BME280;11809;56.390;-3.266;2023-03-21T01:19:18;99872.00;;;16.84;54.27
23281;BME280;11809;56.390;-3.266;2023-03-21T01:21:54;99867.75;;;16.82;54.39
23281;BME280;11809;56.390;-3.266;2023-03-21T01:24:21;99865.94;;;16.82;54.48
23281;BME280;11809;56.390;-3.266;2023-03-21T01:26:48;99857.13;;;16.82;54.38
23281;BME280;11809;56.390;-3.266;2023-03-21T01:29:15;99846.78;;;16.79;54.54
23281;BME280;11809;56.390;-3.266;2023-03-21T01:31:42;99848.69;;;16.77;54.64
23281;BME280;11809;56.390;-3.266;2023-03-21T01:34:09;99840.75;;;16.77;54.52
23281;BME280;11809;56.390;-3.266;2023-03-21T01:36:36;99840.88;;;16.75;54.45
23281;BME280;11809;56.390;-3.266;2023-03-21T01:39:06;99845.31;;;16.75;54.51
23281;BME280;11809;56.390;-3.266;2023-03-21T01:41:40;99828.78;;;16.71;54.69
23281;BME280;11809;56.390;-3.266;2023-03-21T01:44:17;99827.13;;;16.70;54.55
23281;BME280;11809;56.390;-3.266;2023-03-21T01:46:49;99819.25;;;16.69;54.63
23281;BME280;11809;56.390;-3.266;2023-03-21T01:49:39;99817.59;;;16.68;54.75
23281;BME280;11809;56.390;-3.266;2023-03-21T01:52:16;99816.75;;;16.67;54.60
23281;BME280;11809;56.390;-3.266;2023-03-21T01:55:02;99810.59;;;16.67;54.61
23281;BME280;11809;56.390;-3.266;2023-03-21T01:57:34;99806.25;;;16.66;54.65
23281;BME280;11809;56.390;-3.266;2023-03-21T02:00:12;99806.25;;;16.66;54.76
23281;BME280;11809;56.390;-3.266;2023-03-21T02:02:42;99802.88;;;16.64;54.75
23281;BME280;11809;56.390;-3.266;2023-03-21T02:05:21;99795.75;;;16.64;54.79
23281;BME280;11809;56.390;-3.266;2023-03-21T02:07:50;99792.25;;;16.64;54.80
23281;BME280;11809;56.390;-3.266;2023-03-21T02:10:18;99787.94;;;16.63;54.78
23281;BME280;11809;56.390;-3.266;2023-03-21T02:12:46;99783.59;;;16.62;54.79
23281;BME280;11809;56.390;-3.266;2023-03-21T02:15:13;99776.34;;;16.64;54.85
23281;BME280;11809;56.390;-3.266;2023-03-21T02:26:36;99752.69;;;16.61;55.01
23281;BME280;11809;56.390;-3.266;2023-03-21T02:32:30;99735.84;;;16.62;54.77
23281;BME280;11809;56.390;-3.266;2023-03-21T02:37:56;99728.81;;;16.61;54.97
23281;BME280;11809;56.390;-3.266;2023-03-21T02:40:33;99732.47;;;16.60;54.90
23281;BME280;11809;56.390;-3.266;2023-03-21T02:43:09;99721.84;;;16.60;54.77
23281;BME280;11809;56.390;-3.266;2023-03-21T02:45:53;99720.88;;;16.61;54.84
23281;BME280;11809;56.390;-3.266;2023-03-21T02:48:29;99713.91;;;16.60;54.80
23281;BME280;11809;56.390;-3.266;2023-03-21T02:51:15;99717.88;;;16.65;54.81
23281;BME280;11809;56.390;-3.266;2023-03-21T02:53:44;99716.31;;;16.63;54.89
23281;BME280;11809;56.390;-3.266;2023-03-21T02:56:22;99712.81;;;16.62;54.80
23281;BME280;11809;56.390;-3.266;2023-03-21T02:58:52;99712.66;;;16.64;54.83
23281;BME280;11809;56.390;-3.266;2023-03-21T03:01:19;99702.91;;;16.64;54.80
23281;BME280;11809;56.390;-3.266;2023-03-21T03:03:46;99704.59;;;16.65;54.80
23281;BME280;11809;56.390;-3.266;2023-03-21T03:06:24;99694.84;;;16.66;54.81
23281;BME280;11809;56.390;-3.266;2023-03-21T03:09:18;99686.88;;;16.66;54.78
23281;BME280;11809;56.390;-3.266;2023-03-21T03:11:56;99685.91;;;16.67;54.86
23281;BME280;11809;56.390;-3.266;2023-03-21T03:14:42;99686.88;;;16.66;54.87
23281;BME280;11809;56.390;-3.266;2023-03-21T03:20:36;99677.09;;;16.66;55.00
23281;BME280;11809;56.390;-3.266;2023-03-21T03:25:55;99673.47;;;16.67;55.03
23281;BME280;11809;56.390;-3.266;2023-03-21T03:28:27;99669.88;;;16.68;54.91
23281;BME280;11809;56.390;-3.266;2023-03-21T03:30:57;99666.38;;;16.68;54.96
23281;BME280;11809;56.390;-3.266;2023-03-21T03:33:37;99659.38;;;16.67;55.10
23281;BME280;11809;56.390;-3.266;2023-03-21T03:36:09;99660.09;;;16.69;55.04
23281;BME280;11809;56.390;-3.266;2023-03-21T03:38:50;99652.00;;;16.70;54.98
23281;BME280;11809;56.390;-3.266;2023-03-21T03:41:23;99648.50;;;16.70;55.10
23281;BME280;11809;56.390;-3.266;2023-03-21T03:43:55;99638.03;;;16.68;54.99
23281;BME280;11809;56.390;-3.266;2023-03-21T03:48:57;99629.34;;;16.66;55.22
23281;BME280;11809;56.390;-3.266;2023-03-21T03:51:53;99614.28;;;16.67;55.42
23281;BME280;11809;56.390;-3.266;2023-03-21T03:54:31;99624.63;;;16.70;55.34
23281;BME280;11809;56.390;-3.266;2023-03-21T03:57:00;99614.63;;;16.73;55.16
23281;BME280;11809;56.390;-3.266;2023-03-21T03:59:27;99616.28;;;16.74;54.98
23281;BME280;11809;56.390;-3.266;2023-03-21T04:01:54;99625.81;;;16.77;54.99
23281;BME280;11809;56.390;-3.266;2023-03-21T04:04:21;99608.22;;;16.76;55.09
23281;BME280;11809;56.390;-3.266;2023-03-21T04:06:48;99600.97;;;16.78;55.11
23281;BME280;11809;56.390;-3.266;2023-03-21T04:09:19;99608.78;;;16.79;55.01
23281;BME280;11809;56.390;-3.266;2023-03-21T04:11:59;99598.06;;;16.81;55.02
23281;BME280;11809;56.390;-3.266;2023-03-21T04:14:26;99594.56;;;16.80;54.95
23281;BME280;11809;56.390;-3.266;2023-03-21T04:17:07;99596.13;;;16.83;54.87
23281;BME280;11809;56.390;-3.266;2023-03-21T04:19:34;99593.47;;;16.83;55.09
23281;BME280;11809;56.390;-3.266;2023-03-21T04:22:01;99585.50;;;16.83;55.10
23281;BME280;11809;56.390;-3.266;2023-03-21T04:24:28;99583.13;;;16.80;55.20
23281;BME280;11809;56.390;-3.266;2023-03-21T04:26:59;99576.84;;;16.81;55.27
23281;BME280;11809;56.390;-3.266;2023-03-21T04:29:27;99578.66;;;16.80;55.20
23281;BME280;11809;56.390;-3.266;2023-03-21T04:31:55;99582.88;;;16.83;55.03
23281;BME280;11809;56.390;-3.266;2023-03-21T04:34:22;99580.34;;;16.81;55.34
23281;BME280;11809;56.390;-3.266;2023-03-21T04:36:54;99584.81;;;16.81;55.25
23281;BME280;11809;56.390;-3.266;2023-03-21T04:39:21;99578.66;;;16.80;55.50
23281;BME280;11809;56.390;-3.266;2023-03-21T04:41:50;99574.91;;;16.83;55.41
23281;BME280;11809;56.390;-3.266;2023-03-21T04:44:17;99567.91;;;16.82;55.63
23281;BME280;11809;56.390;-3.266;2023-03-21T04:46:44;99566.09;;;16.82;55.47
23281;BME280;11809;56.390;-3.266;2023-03-21T04:49:11;99560.69;;;16.84;55.32
23281;BME280;11809;56.390;-3.266;2023-03-21T04:51:38;99560.53;;;16.85;55.38
23281;BME280;11809;56.390;-3.266;2023-03-21T04:54:05;99557.19;;;16.83;55.52
23281;BME280;11809;56.390;-3.266;2023-03-21T04:56:32;99551.88;;;16.83;55.53
23281;BME280;11809;56.390;-3.266;2023-03-21T04:59:05;99555.38;;;16.84;55.48
23281;BME280;11809;56.390;-3.266;2023-03-21T05:01:33;99560.53;;;16.85;55.50
23281;BME280;11809;56.390;-3.266;2023-03-21T05:04:01;99544.50;;;16.87;55.35
23281;BME280;11809;56.390;-3.266;2023-03-21T05:06:29;99541.84;;;16.87;55.33
23281;BME280;11809;56.390;-3.266;2023-03-21T05:08:59;99534.84;;;16.86;55.34
23281;BME280;11809;56.390;-3.266;2023-03-21T05:11:27;99534.84;;;16.86;55.33
23281;BME280;11809;56.390;-3.266;2023-03-21T05:13:59;99541.84;;;16.87;55.30
23281;BME280;11809;56.390;-3.266;2023-03-21T05:16:26;99531.25;;;16.87;55.25
23281;BME280;11809;56.390;-3.266;2023-03-21T05:18:57;99537.34;;;16.87;55.49
23281;BME280;11809;56.390;-3.266;2023-03-21T05:21:24;99533.59;;;16.90;55.28
23281;BME280;11809;56.390;-3.266;2023-03-21T05:23:55;99537.25;;;16.89;55.23
23281;BME280;11809;56.390;-3.266;2023-03-21T05:26:24;99538.91;;;16.90;55.32
23281;BME280;11809;56.390;-3.266;2023-03-21T05:28:51;99538.81;;;16.91;55.16
23281;BME280;11809;56.390;-3.266;2023-03-21T05:31:18;99532.66;;;16.91;55.32
23281;BME280;11809;56.390;-3.266;2023-03-21T05:33:46;99532.66;;;16.91;55.20
23281;BME280;11809;56.390;-3.266;2023-03-21T05:36:14;99532.66;;;16.91;55.16
23281;BME280;11809;56.390;-3.266;2023-03-21T05:38:41;99537.69;;;16.94;55.03
23281;BME280;11809;56.390;-3.266;2023-03-21T05:41:16;99523.47;;;16.95;55.16
23281;BME280;11809;56.390;-3.266;2023-03-21T05:43:44;99522.63;;;16.94;55.27
23281;BME280;11809;56.390;-3.266;2023-03-21T05:46:12;99519.13;;;16.94;55.30
23281;BME280;11809;56.390;-3.266;2023-03-21T05:48:39;99518.41;;;16.92;55.51
23281;BME280;11809;56.390;-3.266;2023-03-21T05:51:06;99509.47;;;16.93;55.42
23281;BME280;11809;56.390;-3.266;2023-03-21T05:53:32;99512.84;;;16.95;55.45
23281;BME280;11809;56.390;-3.266;2023-03-21T05:56:00;99501.69;;;17.01;55.57
23281;BME280;11809;56.390;-3.266;2023-03-21T05:58:27;99505.78;;;17.05;55.27
23281;BME280;11809;56.390;-3.266;2023-03-21T06:00:54;99497.84;;;17.05;55.30
23281;BME280;11809;56.390;-3.266;2023-03-21T06:03:21;99505.00;;;17.14;55.42
23281;BME280;11809;56.390;-3.266;2023-03-21T06:05:48;99503.53;;;17.21;55.04
23281;BME280;11809;56.390;-3.266;2023-03-21T06:08:15;99501.31;;;17.26;54.91
23281;BME280;11809;56.390;-3.266;2023-03-21T06:10:42;99506.38;;;17.29;54.71
23281;BME280;11809;56.390;-3.266;2023-03-21T06:13:09;99506.91;;;17.33;54.87
23281;BME280;11809;56.390;-3.266;2023-03-21T06:15:36;99511.13;;;17.35;54.92
23281;BME280;11809;56.390;-3.266;2023-03-21T06:18:03;99504.72;;;17.38;54.83
23281;BME280;11809;56.390;-3.266;2023-03-21T06:20:30;99504.72;;;17.38;55.02
23281;BME280;11809;56.390;-3.266;2023-03-21T06:22:57;99505.28;;;17.41;55.08
23281;BME280;11809;56.390;-3.266;2023-03-21T06:25:24;99498.88;;;17.44;55.46
23281;BME280;11809;56.390;-3.266;2023-03-21T06:27:51;99489.09;;;17.44;55.67
23281;BME280;11809;56.390;-3.266;2023-03-21T06:30:18;99485.19;;;17.48;55.58
23281;BME280;11809;56.390;-3.266;2023-03-21T06:32:45;99477.72;;;17.53;55.69
23281;BME280;11809;56.390;-3.266;2023-03-21T06:35:12;99492.53;;;17.56;55.39
23281;BME280;11809;56.390;-3.266;2023-03-21T06:37:39;99490.00;;;17.54;55.38
23281;BME280;11809;56.390;-3.266;2023-03-21T06:40:06;99490.84;;;17.55;55.55
23281;BME280;11809;56.390;-3.266;2023-03-21T06:42:35;99499.41;;;17.59;55.22
23281;BME280;11809;56.390;-3.266;2023-03-21T06:45:02;99498.41;;;17.60;55.31
23281;BME280;11809;56.390;-3.266;2023-03-21T06:47:29;99498.28;;;17.61;55.18
23281;BME280;11809;56.390;-3.266;2023-03-21T06:49:56;99500.69;;;17.64;54.92
23281;BME280;11809;56.390;-3.266;2023-03-21T06:52:23;99499.59;;;17.67;54.81
23281;BME280;11809;56.390;-3.266;2023-03-21T06:54:50;99500.28;;;17.69;54.73
23281;BME280;11809;56.390;-3.266;2023-03-21T06:57:17;99509.94;;;17.70;54.56
23281;BME280;11809;56.390;-3.266;2023-03-21T06:59:46;99503.53;;;17.72;54.58
23281;BME280;11809;56.390;-3.266;2023-03-21T07:02:13;99517.34;;;17.76;54.43
23281;BME280;11809;56.390;-3.266;2023-03-21T07:04:40;99512.03;;;17.76;54.35
23281;BME280;11809;56.390;-3.266;2023-03-21T07:07:07;99502.25;;;17.76;54.67
23281;BME280;11809;56.390;-3.266;2023-03-21T07:09:34;99511.06;;;17.77;54.79
23281;BME280;11809;56.390;-3.266;2023-03-21T07:12:01;99509.75;;;17.41;53.38
23281;BME280;11809;56.390;-3.266;2023-03-21T07:14:28;99503.34;;;17.13;53.86
23281;BME280;11809;56.390;-3.266;2023-03-21T07:16:57;99511.59;;;17.20;53.88
23281;BME280;11809;56.390;-3.266;2023-03-21T07:19:24;99502.53;;;17.22;54.19
23281;BME280;11809;56.390;-3.266;2023-03-21T07:21:52;99509.47;;;17.34;54.27
23281;BME280;11809;56.390;-3.266;2023-03-21T07:24:19;99517.59;;;17.42;54.56
23281;BME280;11809;56.390;-3.266;2023-03-21T07:26:46;99517.34;;;17.45;54.35
23281;BME280;11809;56.390;-3.266;2023-03-21T07:29:12;99514.41;;;17.48;54.51
23281;BME280;11809;56.390;-3.266;2023-03-21T07:31:41;99518.75;;;17.49;54.41
23281;BME280;11809;56.390;-3.266;2023-03-21T07:34:08;99511.75;;;17.48;54.88
23281;BME280;11809;56.390;-3.266;2023-03-21T07:36:35;99520.31;;;17.52;54.83
23281;BME280;11809;56.390;-3.266;2023-03-21T07:39:03;99518.50;;;17.52;55.06
23281;BME280;11809;56.390;-3.266;2023-03-21T07:41:30;99517.41;;;17.55;54.94
23281;BME280;11809;56.390;-3.266;2023-03-21T07:43:57;99508.34;;;17.58;55.04
23281;BME280;11809;56.390;-3.266;2023-03-21T07:46:24;99507.13;;;17.62;54.95
23281;BME280;11809;56.390;-3.266;2023-03-21T07:48:51;99496.19;;;17.65;55.07
23281;BME280;11809;56.390;-3.266;2023-03-21T07:51:18;99490.63;;;17.68;54.82
23281;BME280;11809;56.390;-3.266;2023-03-21T07:53:45;99479.88;;;17.69;54.82
23281;BME280;11809;56.390;-3.266;2023-03-21T07:56:14;99483.06;;;17.73;55.32
23281;BME280;11809;56.390;-3.266;2023-03-21T07:58:41;99484.78;;;17.74;55.15
23281;BME280;11809;56.390;-3.266;2023-03-21T08:01:08;99482.81;;;17.76;54.91
23281;BME280;11809;56.390;-3.266;2023-03-21T08:03:35;99493.19;;;17.79;54.88
23281;BME280;11809;56.390;-3.266;2023-03-21T08:06:03;99487.59;;;17.82;54.98
23281;BME280;11809;56.390;-3.266;2023-03-21T08:08:31;99497.53;;;17.80;55.23
23281;BME280;11809;56.390;-3.266;2023-03-21T08:10:58;99492.91;;;17.82;54.83
23281;BME280;11809;56.390;-3.266;2023-03-21T08:13:25;99496.53;;;17.81;54.57
23281;BME280;11809;56.390;-3.266;2023-03-21T08:15:53;99498.75;;;17.76;54.94
23281;BME280;11809;56.390;-3.266;2023-03-21T08:18:20;99498.50;;;17.79;55.00
23281;BME280;11809;56.390;-3.266;2023-03-21T08:20:51;99496.41;;;17.82;54.67
23281;BME280;11809;56.390;-3.266;2023-03-21T08:23:18;99493.50;;;17.85;54.74
23281;BME280;11809;56.390;-3.266;2023-03-21T08:25:50;99491.66;;;17.86;54.60
23281;BME280;11809;56.390;-3.266;2023-03-21T08:28:19;99489.00;;;17.86;54.44
23281;BME280;11809;56.390;-3.266;2023-03-21T08:30:47;99492.38;;;17.88;54.37
23281;BME280;11809;56.390;-3.266;2023-03-21T08:33:15;99495.72;;;17.90;54.36
23281;BME280;11809;56.390;-3.266;2023-03-21T08:35:44;99494.88;;;17.89;54.34
23281;BME280;11809;56.390;-3.266;2023-03-21T08:38:12;99484.13;;;17.91;54.06
23281;BME280;11809;56.390;-3.266;2023-03-21T08:40:39;99476.16;;;17.91;54.22
23281;BME280;11809;56.390;-3.266;2023-03-21T08:43:07;99473.19;;;17.94;54.25
23281;BME280;11809;56.390;-3.266;2023-03-21T08:45:34;99481.19;;;17.94;54.18
23281;BME280;11809;56.390;-3.266;2023-03-21T08:48:02;99472.25;;;17.95;54.65
23281;BME280;11809;56.390;-3.266;2023-03-21T08:50:29;99484.56;;;17.96;55.83
23281;BME280;11809;56.390;-3.266;2023-03-21T08:52:57;99479.69;;;18.01;54.88
23281;BME280;11809;56.390;-3.266;2023-03-21T08:55:24;99488.34;;;18.03;54.64
23281;BME280;11809;56.390;-3.266;2023-03-21T08:57:51;99482.88;;;18.04;54.84
23281;BME280;11809;56.390;-3.266;2023-03-21T09:00:18;99482.59;;;18.07;54.77
23281;BME280;11809;56.390;-3.266;2023-03-21T09:02:48;99475.75;;;18.05;55.17
23281;BME280;11809;56.390;-3.266;2023-03-21T09:05:17;99482.59;;;18.07;55.11
23281;BME280;11809;56.390;-3.266;2023-03-21T09:07:45;99478.13;;;18.08;55.17
23281;BME280;11809;56.390;-3.266;2023-03-21T09:10:16;99477.88;;;18.11;55.33
23281;BME280;11809;56.390;-3.266;2023-03-21T09:12:49;99470.59;;;18.13;54.48
23281;BME280;11809;56.390;-3.266;2023-03-21T09:15:18;99465.97;;;18.15;54.05
23281;BME280;11809;56.390;-3.266;2023-03-21T09:17:47;99465.69;;;18.18;54.36
23281;BME280;11809;56.390;-3.266;2023-03-21T09:20:20;99469.06;;;18.20;54.29
23281;BME280;11809;56.390;-3.266;2023-03-21T09:22:52;99462.06;;;18.19;54.13
23281;BME280;11809;56.390;-3.266;2023-03-21T09:25:19;99463.88;;;18.18;54.12
23281;BME280;11809;56.390;-3.266;2023-03-21T09:27:47;99471.00;;;18.18;54.44
23281;BME280;11809;56.390;-3.266;2023-03-21T09:30:17;99469.06;;;18.20;54.25
23281;BME280;11809;56.390;-3.266;2023-03-21T09:32:45;99469.06;;;18.20;54.25
23281;BME280;11809;56.390;-3.266;2023-03-21T09:35:16;99466.41;;;18.20;54.24
23281;BME280;11809;56.390;-3.266;2023-03-21T09:37:46;99457.44;;;18.21;54.11
23281;BME280;11809;56.390;-3.266;2023-03-21T09:40:22;99451.00;;;18.24;54.20
23281;BME280;11809;56.390;-3.266;2023-03-21T09:48:34;99443.59;;;18.27;53.86
23281;BME280;11809;56.390;-3.266;2023-03-21T09:51:22;99448.75;;;18.29;54.18
23281;BME280;11809;56.390;-3.266;2023-03-21T09:53:54;99445.28;;;18.28;54.34
23281;BME280;11809;56.390;-3.266;2023-03-21T09:56:23;99438.28;;;18.27;54.41
23281;BME280;11809;56.390;-3.266;2023-03-21T09:58:55;99430.56;;;18.24;54.16
23281;BME280;11809;56.390;-3.266;2023-03-21T10:01:27;99431.28;;;18.26;54.17
23281;BME280;11809;56.390;-3.266;2023-03-21T10:04:01;99429.72;;;18.24;54.12
23281;BME280;11809;56.390;-3.266;2023-03-21T10:06:30;99426.94;;;18.25;54.17
23281;BME280;11809;56.390;-3.266;2023-03-21T10:09:10;99430.16;;;18.19;54.09
23281;BME280;11809;56.390;-3.266;2023-03-21T10:12:02;99433.63;;;18.00;53.97
23281;BME280;11809;56.390;-3.266;2023-03-21T10:17:48;99423.00;;;18.10;54.76
23281;BME280;11809;56.390;-3.266;2023-03-21T10:22:51;99412.66;;;18.16;54.83
23281;BME280;11809;56.390;-3.266;2023-03-21T10:25:23;99410.84;;;18.17;54.98
23281;BME280;11809;56.390;-3.266;2023-03-21T10:27:52;99413.78;;;18.24;55.03
23281;BME280;11809;56.390;-3.266;2023-03-21T10:30:38;99405.09;;;18.22;55.23
23281;BME280;11809;56.390;-3.266;2023-03-21T10:33:10;99406.78;;;18.23;55.33
23281;BME280;11809;56.390;-3.266;2023-03-21T10:35:40;99401.47;;;18.23;55.11
23281;BME280;11809;56.390;-3.266;2023-03-21T10:38:15;99406.91;;;18.21;55.20
23281;BME280;11809;56.390;-3.266;2023-03-21T10:40:44;99403.13;;;18.24;55.15
23281;BME280;11809;56.390;-3.266;2023-03-21T10:45:55;99396.69;;;18.26;54.74
23281;BME280;11809;56.390;-3.266;2023-03-21T10:48:23;99393.06;;;18.27;55.11
23281;BME280;11809;56.390;-3.266;2023-03-21T10:50:53;99389.44;;;18.28;54.85
23281;BME280;11809;56.390;-3.266;2023-03-21T10:53:28;99384.13;;;18.28;55.34
23281;BME280;11809;56.390;-3.266;2023-03-21T10:55:58;99387.47;;;18.30;54.81
23281;BME280;11809;56.390;-3.266;2023-03-21T10:58:34;99378.81;;;18.28;54.76
23281;BME280;11809;56.390;-3.266;2023-03-21T11:01:08;99373.47;;;18.28;54.99
23281;BME280;11809;56.390;-3.266;2023-03-21T11:03:44;99374.16;;;18.30;55.15
23281;BME280;11809;56.390;-3.266;2023-03-21T11:06:14;99372.34;;;18.31;54.96
23281;BME280;11809;56.390;-3.266;2023-03-21T11:08:46;99363.09;;;18.35;54.85
23281;BME280;11809;56.390;-3.266;2023-03-21T11:11:40;99361.00;;;18.38;54.77
23281;BME280;11809;56.390;-3.266;2023-03-21T11:14:24;99364.78;;;18.36;54.99
23281;BME280;11809;56.390;-3.266;2023-03-21T11:16:52;99363.09;;;18.35;54.96
23281;BME280;11809;56.390;-3.266;2023-03-21T11:19:28;99364.63;;;18.37;54.99
23281;BME280;11809;56.390;-3.266;2023-03-21T11:22:07;99366.91;;;18.23;54.39
23281;BME280;11809;56.390;-3.266;2023-03-21T11:24:34;99367.03;;;18.21;54.29
23281;BME280;11809;56.390;-3.266;2023-03-21T11:27:06;99360.31;;;18.27;54.55
23281;BME280;11809;56.390;-3.266;2023-03-21T11:29:53;99360.59;;;18.33;54.46
23281;BME280;11809;56.390;-3.266;2023-03-21T11:32:34;99351.50;;;18.36;54.58
23281;BME280;11809;56.390;-3.266;2023-03-21T11:37:33;99346.00;;;18.37;54.58
23281;BME280;11809;56.390;-3.266;2023-03-21T11:40:26;99346.00;;;18.37;54.47
23281;BME280;11809;56.390;-3.266;2023-03-21T11:42:54;99348.69;;;18.37;54.41
23281;BME280;11809;56.390;-3.266;2023-03-21T11:45:26;99339.72;;;18.38;54.33
23281;BME280;11809;56.390;-3.266;2023-03-21T11:47:55;99352.03;;;18.39;54.51
23281;BME280;11809;56.390;-3.266;2023-03-21T11:50:33;99342.09;;;18.41;54.33
23281;BME280;11809;56.390;-3.266;2023-03-21T11:58:39;99347.44;;;18.41;54.12
23281;BME280;11809;56.390;-3.266;2023-03-21T12:06:21;99331.88;;;18.46;54.30
23281;BME280;11809;56.390;-3.266;2023-03-21T12:22:16;99311.72;;;18.44;54.49
23281;BME280;11809;56.390;-3.266;2023-03-21T12:24:52;99312.28;;;18.47;54.88
23281;BME280;11809;56.390;-3.266;2023-03-21T12:30:14;99300.63;;;18.58;55.30
23281;BME280;11809;56.390;-3.266;2023-03-21T12:38:22;99283.19;;;18.83;53.56
23281;BME280;11809;56.390;-3.266;2023-03-21T12:43:47;99280.38;;;18.84;54.24
23281;BME280;11809;56.390;-3.266;2023-03-21T12:46:40;99281.50;;;18.82;54.55
23281;BME280;11809;56.390;-3.266;2023-03-21T12:51:46;99271.44;;;18.75;53.66
23281;BME280;11809;56.390;-3.266;2023-03-21T12:54:31;99277.34;;;18.69;53.30
23281;BME280;11809;56.390;-3.266;2023-03-21T13:00:15;99271.38;;;18.58;53.01
23281;BME280;11809;56.390;-3.266;2023-03-21T13:02:56;99266.19;;;18.56;53.25
23281;BME280;11809;56.390;-3.266;2023-03-21T13:05:31;99274.88;;;18.58;52.81
23281;BME280;11809;56.390;-3.266;2023-03-21T13:08:11;99277.69;;;18.47;53.17
23281;BME280;11809;56.390;-3.266;2023-03-21T13:10:40;99283.31;;;18.35;53.13
23281;BME280;11809;56.390;-3.266;2023-03-21T13:27:01;99269.94;;;17.98;53.91
23281;BME280;11809;56.390;-3.266;2023-03-21T13:34:23;99264.34;;;17.91;54.15
23281;BME280;11809;56.390;-3.266;2023-03-21T13:36:51;99279.59;;;17.89;53.77
23281;BME280;11809;56.390;-3.266;2023-03-21T13:39:24;99280.31;;;17.82;53.94
23281;BME280;11809;56.390;-3.266;2023-03-21T13:41:52;99280.44;;;17.80;54.90
23281;BME280;11809;56.390;-3.266;2023-03-21T13:46:59;99264.78;;;17.77;56.37
23281;BME280;11809;56.390;-3.266;2023-03-21T13:49:35;99255.81;;;17.88;57.46
23281;BME280;11809;56.390;-3.266;2023-03-21T13:54:53;99239.53;;;18.10;58.03
23281;BME280;11809;56.390;-3.266;2023-03-21T13:57:45;99235.06;;;18.10;57.98
23281;BME280;11809;56.390;-3.266;2023-03-21T14:05:25;99214.88;;;18.27;56.96
23281;BME280;11809;56.390;-3.266;2023-03-21T14:08:00;99206.63;;;18.30;57.00
23281;BME280;11809;56.390;-3.266;2023-03-21T14:10:51;99201.00;;;18.33;57.10
23281;BME280;11809;56.390;-3.266;2023-03-21T14:13:21;99203.81;;;18.32;56.64
23281;BME280;11809;56.390;-3.266;2023-03-21T14:15:58;99200.63;;;18.28;56.58
23281;BME280;11809;56.390;-3.266;2023-03-21T14:18:29;99196.94;;;18.29;57.61
23281;BME280;11809;56.390;-3.266;2023-03-21T14:24:13;99191.19;;;18.34;57.40
23281;BME280;11809;56.390;-3.266;2023-03-21T14:26:51;99191.75;;;18.37;57.20
23281;BME280;11809;56.390;-3.266;2023-03-21T14:29:25;99189.78;;;18.39;57.07
23281;BME280;11809;56.390;-3.266;2023-03-21T14:31:58;99180.13;;;18.38;56.72
23281;BME280;11809;56.390;-3.266;2023-03-21T14:34:29;99191.47;;;18.40;56.76
23281;BME280;11809;56.390;-3.266;2023-03-21T14:36:57;99176.47;;;18.39;56.72
23281;BME280;11809;56.390;-3.266;2023-03-21T14:39:31;99181.38;;;18.44;56.56
23281;BME280;11809;56.390;-3.266;2023-03-21T14:42:03;99179.25;;;18.47;56.18
23281;BME280;11809;56.390;-3.266;2023-03-21T14:44:36;99178.28;;;18.48;56.09
23281;BME280;11809;56.390;-3.266;2023-03-21T14:47:23;99170.19;;;18.40;56.09
23281;BME280;11809;56.390;-3.266;2023-03-21T14:49:50;99179.69;;;18.43;56.03
23281;BME280;11809;56.390;-3.266;2023-03-21T14:52:28;99170.84;;;18.42;55.92
23281;BME280;11809;56.390;-3.266;2023-03-21T14:54:57;99161.75;;;18.45;55.80
23281;BME280;11809;56.390;-3.266;2023-03-21T14:57:28;99169.59;;;18.46;55.66
23281;BME280;11809;56.390;-3.266;2023-03-21T14:59:59;99161.63;;;18.46;55.65
23281;BME280;11809;56.390;-3.266;2023-03-21T15:02:33;99162.34;;;18.48;55.54
23281;BME280;11809;56.390;-3.266;2023-03-21T15:05:31;99158.69;;;18.49;55.35